Kindersley Airport, Saskatchewan

Past 24 Hour Conditions

This table is a summary of hourly weather conditions for the past 24 hours. This summary includes the following parameters: temperature, humidity, dew point, wind speed and direction, air pressure, visibility and/or wind chill and humidex.
Date / Time
(CST)
Conditions Temp (°F) Humidity (%) Dew Point (°F) Wind (mph) Pressure (inches) Vis (mi) Humidex
28 August 2014
5:00 Mainly Clear 54 94 53 NE 8 29.9 15 *
4:00 Mainly Clear 55 93 53 NE 8 29.8 15 *
3:00 Partly Cloudy 59 80 53 NNE 10 29.9 15 *
2:00 Partly Cloudy 55 87 52 calm 29.8 15 *
1:00 Partly Cloudy 61 73 52 ESE 13 29.8 15 *
00:00 Mainly Clear 61 74 53 E 11 29.8 15 *
27 August 2014
23:00 Mainly Clear 62 76 55 ENE 10 29.9 15 *
22:00 Mainly Clear 60 79 54 ENE 8 29.9 15 *
21:00 Mainly Clear 66 66 55 NNE 6 29.9 15 *
20:00 Mainly Sunny 70 55 53 N 8 29.9 15 *
19:00 Mainly Sunny 79 41 54 NNW 8 29.9 15 83
18:00 Mainly Sunny 82 34 51 NW 13 gust 19 29.9 15 84
17:00 Mainly Sunny 83 35 53 WNW 12 gust 21 29.8 15 87
16:00 Mainly Sunny 84 31 51 WNW 18 gust 25 29.8 15 87
15:00 Mainly Sunny 85   29 50 W 18 gust 25 29.8 15 88
14:00 Mainly Sunny 84 34 53 WSW 9 gust 19 29.8 15 88
13:00 Sunny 82 34 51 SW 11 29.8 15 85
12:00 Mainly Sunny 78 40 52 SSW 11 29.9 15 81
11:00 Mainly Sunny 74 46 52 SW 8 29.9 15 77
10:00 Mainly Sunny 68 57 52 SSW 7 29.9 15 *
9:00 Mainly Sunny 64 60 50 SSW 9 29.9 15 *
8:00 Partly Cloudy 59 70 49 S 7 29.9 15 *
7:00 Mainly Sunny 52 85 48 SSE 9 29.9 15 *
6:00 Mainly Clear 52 85 47 SSE 10 29.9 15 *
5:00 Mainly Clear 51   85 47 SSE 9 29.9 15 *
N/A
Not available
 ↑ 
Highest temperature
 ↓ 
Lowest temperature
*
Value not significant.

If you require additional historical weather information, please visit Climate Data Online.